createdAt,value
2022-10-11T04:46:00.839Z,4.85
2022-10-11T04:47:02.435Z,4.85
2022-10-11T04:48:01.814Z,4.88
2022-10-11T04:49:01.806Z,4.89
2022-10-11T04:50:01.792Z,4.97
2022-10-11T04:51:01.805Z,5.06
2022-10-11T04:52:01.777Z,5.18
2022-10-11T04:53:01.780Z,5.30
2022-10-11T04:54:01.756Z,5.38
2022-10-11T04:55:01.740Z,5.42
2022-10-11T04:56:02.131Z,5.38
2022-10-11T04:57:01.734Z,5.35
2022-10-11T04:58:01.711Z,5.35
2022-10-11T04:59:01.714Z,5.35
2022-10-11T05:00:01.690Z,5.30
2022-10-11T05:01:01.701Z,5.35
2022-10-11T05:02:01.736Z,5.35
2022-10-11T05:03:01.661Z,5.35
2022-10-11T05:04:01.645Z,5.30
2022-10-11T05:05:01.647Z,5.30
2022-10-11T05:06:05.442Z,5.33
2022-10-11T05:07:01.620Z,5.33
2022-10-11T05:08:01.601Z,5.33
2022-10-11T05:09:01.604Z,5.33
2022-10-11T05:10:01.582Z,5.38
2022-10-11T05:11:01.592Z,5.35
2022-10-11T05:12:01.559Z,5.38
2022-10-11T05:13:01.561Z,5.38
2022-10-11T05:14:01.554Z,5.40
2022-10-11T05:15:01.537Z,5.48
2022-10-11T05:16:01.801Z,5.48
2022-10-11T05:17:01.517Z,5.48
2022-10-11T05:18:01.501Z,5.53
2022-10-11T05:19:01.494Z,5.53
2022-10-11T05:20:01.477Z,5.51
2022-10-11T05:21:01.493Z,5.54
2022-10-11T05:22:01.464Z,5.54
2022-10-11T05:23:01.467Z,5.57
2022-10-11T05:24:01.441Z,5.57
2022-10-11T05:25:01.434Z,5.60
2022-10-11T05:26:01.727Z,5.61
2022-10-11T05:27:03.485Z,5.61
2022-10-11T05:28:01.398Z,5.67
2022-10-11T05:29:01.504Z,5.67
2022-10-11T05:30:01.377Z,5.74
2022-10-11T05:31:01.371Z,5.83
2022-10-11T05:32:01.381Z,5.86
2022-10-11T05:33:01.352Z,5.86
2022-10-11T05:34:01.336Z,5.89
2022-10-11T05:35:01.342Z,5.90
2022-10-11T05:36:01.564Z,5.89
2022-10-11T05:37:01.308Z,5.85
2022-10-11T05:38:01.298Z,5.83
2022-10-11T05:39:01.288Z,5.83
2022-10-11T05:40:01.271Z,5.85
2022-10-11T05:41:01.279Z,5.86
2022-10-11T05:42:01.255Z,5.86
2022-10-11T05:43:01.247Z,5.89
2022-10-11T05:44:01.235Z,5.86
2022-10-11T05:45:01.230Z,5.86
2022-10-11T05:46:01.426Z,5.89
2022-10-11T05:47:01.215Z,5.96
2022-10-11T05:48:01.190Z,5.99
2022-10-11T05:49:01.182Z,6.01
2022-10-11T05:50:01.176Z,6.06
2022-10-11T05:51:01.178Z,6.14
2022-10-11T05:52:01.154Z,6.15
2022-10-11T05:53:01.144Z,6.14
2022-10-11T05:54:01.130Z,6.12
2022-10-11T05:55:01.122Z,6.09
2022-10-11T05:56:01.175Z,6.09
2022-10-11T05:57:01.105Z,6.09
2022-10-11T05:58:01.088Z,6.08
2022-10-11T05:59:02.538Z,6.09
2022-10-11T06:00:01.074Z,6.08
2022-10-11T06:01:01.122Z,6.11
2022-10-11T06:02:01.051Z,6.11
2022-10-11T06:03:01.043Z,6.14
2022-10-11T06:04:01.028Z,6.17
2022-10-11T06:05:01.030Z,6.15
2022-10-11T06:06:01.028Z,6.18
2022-10-11T06:07:01.000Z,6.17
2022-10-11T06:08:00.985Z,6.17
2022-10-11T06:09:00.983Z,6.19
2022-10-11T06:10:00.964Z,6.19
2022-10-11T06:11:00.971Z,6.19
2022-10-11T06:12:00.944Z,6.18
2022-10-11T06:13:00.942Z,6.18
2022-10-11T06:14:00.922Z,6.17
2022-10-11T06:15:00.918Z,6.18
2022-10-11T06:16:00.922Z,6.25
2022-10-11T06:17:00.897Z,6.28
2022-10-11T06:18:00.882Z,6.28
2022-10-11T06:19:00.876Z,6.31
2022-10-11T06:20:00.883Z,6.30
2022-10-11T06:21:00.864Z,6.30
2022-10-11T06:22:00.857Z,6.31
2022-10-11T06:23:00.834Z,6.30
2022-10-11T06:24:01.692Z,6.33
2022-10-11T06:25:00.815Z,6.38
2022-10-11T06:26:00.818Z,6.40
2022-10-11T06:27:00.848Z,6.44
2022-10-11T06:28:00.783Z,6.52
2022-10-11T06:29:00.854Z,6.61
2022-10-11T06:30:00.764Z,6.67
2022-10-11T06:31:00.768Z,6.70
2022-10-11T06:32:00.736Z,6.73
2022-10-11T06:33:04.571Z,6.76
2022-10-11T06:34:00.716Z,6.74
2022-10-11T06:35:00.738Z,6.73
2022-10-11T06:36:00.700Z,6.76
2022-10-11T06:37:00.692Z,6.80
2022-10-11T06:38:00.673Z,6.81
2022-10-11T06:39:00.678Z,6.84
2022-10-11T06:40:00.673Z,6.81
2022-10-11T06:41:00.646Z,6.81
2022-10-11T06:42:00.661Z,6.81
2022-10-11T06:43:00.637Z,6.84
2022-10-11T06:44:00.624Z,6.84
2022-10-11T06:45:00.621Z,6.84
2022-10-11T06:46:00.597Z,6.87
2022-10-11T06:47:00.583Z,6.88
2022-10-11T06:48:00.571Z,6.89
2022-10-11T06:49:00.564Z,6.94
2022-10-11T06:50:00.551Z,6.94
2022-10-11T06:51:00.855Z,6.95
2022-10-11T06:52:00.531Z,6.95
2022-10-11T06:53:00.522Z,7.02
2022-10-11T06:54:00.505Z,6.99
2022-10-11T06:55:00.502Z,7.02
2022-10-11T06:56:00.502Z,7.05
2022-10-11T06:57:00.491Z,7.07
2022-10-11T06:58:00.465Z,7.12
2022-10-11T06:59:00.460Z,7.12
2022-10-11T07:00:00.447Z,7.16
2022-10-11T07:01:00.552Z,7.20
2022-10-11T07:02:00.428Z,7.23
2022-10-11T07:03:00.417Z,7.28
2022-10-11T07:04:00.419Z,7.31
2022-10-11T07:05:00.399Z,7.34
2022-10-11T07:06:02.621Z,7.34
2022-10-11T07:07:00.482Z,7.37
2022-10-11T07:08:00.362Z,7.40
2022-10-11T07:09:00.363Z,7.52
2022-10-11T07:10:00.381Z,7.58
2022-10-11T07:11:00.338Z,7.63
2022-10-11T07:12:00.320Z,7.67
2022-10-11T07:13:00.317Z,7.75
2022-10-11T07:14:00.308Z,7.82
2022-10-11T07:15:00.318Z,7.90
2022-10-11T07:16:00.282Z,7.93
2022-10-11T07:17:00.272Z,8.07
2022-10-11T07:18:00.260Z,8.12
2022-10-11T07:19:01.099Z,8.22
2022-10-11T07:20:00.248Z,8.25
2022-10-11T07:21:00.246Z,8.34
2022-10-11T07:22:00.215Z,8.40
2022-10-11T07:23:00.211Z,8.45
2022-10-11T07:24:00.214Z,8.44
2022-10-11T07:25:00.287Z,8.48
2022-10-11T07:26:00.189Z,8.55
2022-10-11T07:27:00.172Z,8.50
2022-10-11T07:28:00.180Z,8.53
2022-10-11T07:29:00.255Z,8.56
2022-10-11T07:30:00.136Z,8.59
2022-10-11T07:31:00.141Z,8.59
2022-10-11T07:32:00.112Z,8.61
2022-10-11T07:33:00.114Z,8.63
2022-10-11T07:34:00.088Z,8.70
2022-10-11T07:35:00.105Z,8.76
2022-10-11T07:36:00.083Z,8.80
2022-10-11T07:37:00.087Z,8.86
2022-10-11T07:38:00.068Z,8.94
2022-10-11T07:39:00.062Z,9.02
2022-10-11T07:40:00.027Z,9.08
2022-10-11T07:41:00.034Z,9.14
2022-10-11T07:42:00.008Z,9.20
2022-10-11T07:42:59.998Z,9.20
2022-10-11T07:43:59.985Z,9.20
2022-10-11T07:44:59.976Z,9.23
2022-10-11T07:45:59.995Z,9.24
2022-10-11T07:46:59.988Z,9.24
2022-10-11T07:47:59.950Z,9.28
2022-10-11T07:48:59.940Z,9.24
2022-10-11T07:49:59.922Z,9.24
2022-10-11T07:50:59.927Z,9.21
2022-10-11T07:51:59.922Z,9.21
2022-10-11T07:52:59.897Z,9.20
2022-10-11T07:54:04.679Z,9.20
2022-10-11T07:54:59.873Z,9.21
2022-10-11T07:55:59.885Z,9.26
2022-10-11T07:56:59.851Z,9.29
2022-10-11T07:57:59.841Z,9.39
2022-10-11T07:58:59.861Z,9.47
2022-10-11T07:59:59.821Z,9.46
2022-10-11T08:00:59.875Z,9.51
2022-10-11T08:01:59.918Z,9.51
2022-10-11T08:02:59.813Z,9.48
2022-10-11T08:03:59.783Z,9.54
2022-10-11T08:04:59.766Z,9.57
2022-10-11T08:05:59.776Z,9.68
2022-10-11T08:06:59.754Z,9.71
2022-10-11T08:07:59.737Z,9.76
2022-10-11T08:08:59.720Z,9.81
2022-10-11T08:09:59.714Z,9.79
2022-10-11T08:10:59.733Z,9.66
2022-10-11T08:11:59.705Z,9.71
2022-10-11T08:13:04.269Z,9.79
2022-10-11T08:13:59.720Z,9.91
2022-10-11T08:14:59.670Z,10.02
2022-10-11T08:15:59.661Z,10.04
2022-10-11T08:16:59.633Z,10.01
2022-10-11T08:17:59.648Z,10.04
2022-10-11T08:18:59.610Z,10.01
2022-10-11T08:19:59.618Z,10.07
2022-10-11T08:20:59.606Z,10.14
2022-10-11T08:21:59.593Z,10.20
2022-10-11T08:22:59.585Z,10.23
2022-10-11T08:23:59.563Z,10.38
2022-10-11T08:24:59.547Z,10.63
2022-10-11T08:25:59.556Z,11.00
2022-10-11T08:26:59.526Z,11.44
2022-10-11T08:27:59.519Z,12.14
2022-10-11T08:28:59.638Z,12.79
2022-10-11T08:29:59.515Z,13.19
2022-10-11T08:30:59.497Z,13.55
2022-10-11T08:31:59.477Z,14.10
2022-10-11T08:32:59.470Z,14.57
2022-10-11T08:33:59.461Z,14.51
2022-10-11T08:34:59.460Z,14.65
2022-10-11T08:35:59.441Z,14.99
2022-10-11T08:36:59.424Z,15.10
2022-10-11T08:37:59.428Z,15.34
2022-10-11T08:38:59.598Z,15.13
2022-10-11T08:39:59.410Z,15.32
2022-10-11T08:40:59.384Z,15.51
2022-10-11T08:41:59.376Z,15.41
2022-10-11T08:42:59.360Z,15.64
2022-10-11T08:43:59.358Z,16.20
2022-10-11T08:45:10.615Z,16.20
2022-10-11T08:45:59.339Z,15.97
2022-10-11T08:47:00.513Z,15.68
2022-10-11T08:47:59.318Z,16.04
2022-10-11T08:48:59.299Z,16.49
2022-10-11T08:49:59.314Z,16.89
2022-10-11T08:50:59.278Z,16.86
2022-10-11T08:51:59.266Z,17.16
2022-10-11T08:52:59.325Z,17.71
2022-10-11T08:54:01.389Z,17.66
2022-10-11T08:54:59.254Z,17.70
2022-10-11T08:55:59.223Z,17.89
2022-10-11T08:56:59.266Z,17.82
2022-10-11T08:57:59.213Z,16.86
2022-10-11T08:58:59.186Z,17.34
2022-10-11T08:59:59.199Z,17.78
2022-10-11T09:00:59.170Z,17.51
2022-10-11T09:01:59.320Z,16.76
2022-10-11T09:03:14.203Z,16.93
2022-10-11T09:03:59.144Z,17.21
2022-10-11T09:04:59.150Z,17.70
2022-10-11T09:05:59.121Z,17.46
2022-10-11T09:07:03.874Z,16.98
2022-10-11T09:07:59.103Z,16.75
2022-10-11T09:08:59.704Z,17.34
2022-10-11T09:09:59.089Z,17.99
2022-10-11T09:10:59.063Z,18.44
2022-10-11T09:11:59.062Z,18.88
2022-10-11T09:12:59.041Z,18.73
2022-10-11T09:13:59.039Z,18.67
2022-10-11T09:14:59.047Z,18.29
2022-10-11T09:15:59.012Z,17.77
2022-10-11T09:16:59.053Z,17.23
2022-10-11T09:17:58.993Z,17.40
2022-10-11T09:18:58.980Z,17.78
2022-10-11T09:19:58.985Z,18.18
2022-10-11T09:20:58.968Z,17.72
2022-10-11T09:21:58.966Z,17.79
2022-10-11T09:22:58.941Z,17.86
2022-10-11T09:23:58.937Z,18.42
2022-10-11T09:24:58.931Z,18.65
2022-10-11T09:25:58.921Z,18.72
2022-10-11T09:26:58.909Z,18.70
2022-10-11T09:28:02.786Z,19.26
2022-10-11T09:29:01.483Z,19.87
2022-10-11T09:29:58.875Z,19.83
2022-10-11T09:30:58.901Z,18.67
2022-10-11T09:31:58.873Z,17.89
2022-10-11T09:32:58.830Z,16.56
2022-10-11T09:33:58.836Z,16.34
2022-10-11T09:34:58.809Z,16.27
2022-10-11T09:35:58.813Z,16.46
2022-10-11T09:36:58.802Z,16.52
2022-10-11T09:37:58.783Z,16.71
2022-10-11T09:39:01.820Z,16.97
2022-10-11T09:39:58.769Z,17.81
2022-10-11T09:40:58.748Z,18.27
2022-10-11T09:41:58.758Z,18.21
2022-10-11T09:42:58.732Z,18.33
2022-10-11T09:43:58.718Z,18.91
2022-10-11T09:44:58.710Z,19.07
2022-10-11T09:45:58.698Z,18.54
2022-10-11T09:46:58.696Z,18.57
2022-10-11T09:47:58.685Z,19.07
2022-10-11T09:48:58.664Z,19.55
2022-10-11T09:49:58.653Z,20.20
2022-10-11T09:50:58.642Z,20.52
2022-10-11T09:51:58.649Z,19.77
2022-10-11T09:52:58.620Z,18.90
2022-10-11T09:53:58.614Z,19.00
2022-10-11T09:54:58.615Z,19.81
2022-10-11T09:55:58.588Z,18.92
2022-10-11T09:56:58.590Z,18.32
2022-10-11T09:57:58.577Z,18.10
2022-10-11T09:58:58.556Z,18.66
2022-10-11T09:59:58.554Z,18.80
2022-10-11T10:00:58.539Z,18.25
2022-10-11T10:01:58.645Z,17.79
2022-10-11T10:02:58.561Z,17.56
2022-10-11T10:03:58.505Z,17.77
2022-10-11T10:04:58.491Z,18.12
2022-10-11T10:05:58.524Z,18.03
2022-10-11T10:06:58.485Z,17.31
2022-10-11T10:08:02.847Z,17.51
2022-10-11T10:08:58.453Z,17.33
2022-10-11T10:09:58.477Z,17.11
2022-10-11T10:10:59.671Z,17.38
2022-10-11T10:11:58.433Z,17.74
2022-10-11T10:12:58.411Z,18.23
2022-10-11T10:13:58.396Z,18.29
2022-10-11T10:14:58.381Z,18.52
2022-10-11T10:15:58.386Z,19.25
2022-10-11T10:16:58.375Z,19.91
2022-10-11T10:17:58.358Z,19.94
2022-10-11T10:18:58.338Z,20.47
2022-10-11T10:19:58.334Z,20.88
2022-10-11T10:20:58.318Z,20.10
2022-10-11T10:21:58.326Z,19.87
2022-10-11T10:22:58.296Z,19.36
2022-10-11T10:23:58.307Z,18.65
2022-10-11T10:24:58.277Z,18.76
2022-10-11T10:25:58.275Z,18.92
2022-10-11T10:26:58.275Z,19.48
2022-10-11T10:27:58.269Z,18.85
2022-10-11T10:28:58.392Z,18.21
2022-10-11T10:29:58.229Z,17.77
2022-10-11T10:30:58.216Z,17.26
2022-10-11T10:32:15.142Z,17.01
2022-10-11T10:32:58.212Z,17.79
2022-10-11T10:33:58.186Z,18.42
2022-10-11T10:34:58.174Z,18.63
2022-10-11T10:35:58.167Z,18.70
2022-10-11T10:36:58.153Z,19.04
2022-10-11T10:37:58.165Z,19.18
2022-10-11T10:38:58.129Z,18.58
2022-10-11T10:39:58.137Z,18.17
2022-10-11T10:40:58.114Z,17.71
2022-10-11T10:41:58.105Z,17.62
2022-10-11T10:42:58.103Z,18.18
2022-10-11T10:43:58.084Z,18.57
2022-10-11T10:44:58.067Z,19.22
2022-10-11T10:45:58.062Z,19.41
2022-10-11T10:46:58.050Z,19.33
2022-10-11T10:47:58.061Z,18.94
2022-10-11T10:49:58.033Z,19.71
2022-10-11T10:50:58.056Z,20.54
2022-10-11T10:51:58.071Z,20.41
2022-10-11T10:52:58.016Z,20.06
2022-10-11T10:53:57.982Z,19.31
2022-10-11T10:54:57.984Z,18.95
2022-10-11T10:55:57.984Z,18.25
2022-10-11T10:56:57.957Z,18.44
2022-10-11T10:57:57.942Z,18.66
2022-10-11T10:58:57.925Z,18.44
2022-10-11T10:59:57.925Z,18.94
2022-10-11T11:00:57.907Z,19.25
2022-10-11T11:02:06.812Z,19.26
2022-10-11T11:02:57.973Z,19.21
2022-10-11T11:03:57.878Z,19.39
2022-10-11T11:05:57.873Z,19.54
2022-10-11T11:06:57.858Z,19.58
2022-10-11T11:07:57.837Z,20.14
2022-10-11T11:08:57.826Z,20.52
2022-10-11T11:09:58.050Z,19.98
2022-10-11T11:10:57.801Z,19.91
2022-10-11T11:11:57.905Z,20.88
2022-10-11T11:12:57.782Z,21.91
2022-10-11T11:13:57.774Z,21.99
2022-10-11T11:14:57.761Z,22.42
2022-10-11T11:15:57.753Z,22.51
2022-10-11T11:16:57.768Z,21.56
2022-10-11T11:17:57.751Z,21.19
2022-10-11T11:18:57.717Z,20.55
2022-10-11T11:19:57.713Z,20.88
2022-10-11T11:20:57.696Z,20.55
2022-10-11T11:21:57.791Z,19.80
2022-10-11T11:22:57.692Z,18.26
2022-10-11T11:23:57.672Z,17.92
2022-10-11T11:24:57.670Z,17.90
2022-10-11T11:25:57.678Z,18.95
2022-10-11T11:26:57.647Z,20.31
2022-10-11T11:27:57.633Z,19.83
2022-10-11T11:28:57.637Z,20.88
2022-10-11T11:29:57.609Z,21.19
2022-10-11T11:30:57.594Z,20.95
2022-10-11T11:31:57.604Z,20.82
2022-10-11T11:32:57.578Z,20.95
2022-10-11T11:33:57.578Z,21.22
2022-10-11T11:34:57.552Z,21.98
2022-10-11T11:35:57.579Z,22.31
2022-10-11T11:36:57.555Z,21.62
2022-10-11T11:38:02.480Z,22.51
2022-10-11T11:38:57.532Z,22.88
2022-10-11T11:39:57.523Z,22.51
2022-10-11T11:40:57.491Z,21.92
2022-10-11T11:41:57.550Z,21.67
2022-10-11T11:42:57.468Z,22.25
2022-10-11T11:43:57.468Z,22.40
2022-10-11T11:44:57.453Z,20.85
2022-10-11T11:45:57.475Z,19.59
2022-10-11T11:46:57.448Z,18.90
2022-10-11T11:47:57.435Z,18.67
2022-10-11T11:48:57.407Z,18.90
2022-10-11T11:49:57.401Z,19.14
2022-10-11T11:50:57.386Z,19.40
2022-10-11T11:51:57.393Z,19.69
2022-10-11T11:52:57.367Z,19.59
2022-10-11T11:53:57.360Z,19.69
2022-10-11T11:55:01.485Z,19.14
2022-10-11T11:55:57.347Z,18.11
2022-10-11T11:56:57.335Z,17.41
2022-10-11T11:57:57.318Z,16.78
2022-10-11T11:58:57.302Z,16.30
2022-10-11T11:59:57.301Z,15.87
2022-10-11T12:00:57.278Z,15.72
2022-10-11T12:01:57.301Z,16.11
2022-10-11T12:02:57.320Z,16.68
2022-10-11T12:03:57.258Z,17.36
2022-10-11T12:04:57.248Z,18.10
2022-10-11T12:05:57.235Z,17.99
2022-10-11T12:07:14.901Z,18.07
2022-10-11T12:07:57.221Z,17.78
2022-10-11T12:08:57.211Z,17.21
2022-10-11T12:09:57.194Z,17.66
2022-10-11T12:10:57.189Z,17.55
2022-10-11T12:11:57.167Z,17.22
2022-10-11T12:12:57.182Z,16.67
2022-10-11T12:13:57.158Z,16.76
2022-10-11T12:14:57.221Z,16.30
2022-10-11T12:15:57.155Z,16.01
2022-10-11T12:16:57.121Z,16.00
2022-10-11T12:17:57.123Z,16.49
2022-10-11T12:18:57.163Z,17.89
2022-10-11T12:19:57.123Z,18.84
2022-10-11T12:20:57.082Z,19.76
2022-10-11T12:21:57.063Z,20.67
2022-10-11T12:22:57.073Z,21.09
2022-10-11T12:23:57.049Z,21.01
2022-10-11T12:24:57.039Z,20.91
2022-10-11T12:25:57.024Z,21.37
2022-10-11T12:26:57.050Z,20.01
2022-10-11T12:27:57.022Z,18.26
2022-10-11T12:28:57.024Z,17.48
2022-10-11T12:29:56.983Z,17.08
2022-10-11T12:30:56.976Z,16.76
2022-10-11T12:31:56.963Z,16.52
2022-10-11T12:32:56.971Z,16.20
2022-10-11T12:33:56.941Z,15.89
2022-10-11T12:34:56.938Z,15.39
2022-10-11T12:35:56.926Z,15.09
2022-10-11T12:36:56.914Z,14.91
2022-10-11T12:37:56.920Z,14.81
2022-10-11T12:38:56.893Z,14.73
2022-10-11T12:39:56.884Z,14.75
2022-10-11T12:40:56.873Z,14.84
2022-10-11T12:41:56.862Z,15.01
2022-10-11T12:42:56.861Z,15.49
2022-10-11T12:43:56.836Z,17.36
2022-10-11T12:44:56.831Z,18.45
2022-10-11T12:45:56.815Z,19.02
2022-10-11T12:46:56.809Z,19.76
2022-10-11T12:47:56.810Z,20.50
2022-10-11T12:48:56.813Z,21.32
2022-10-11T12:49:56.774Z,21.79
2022-10-11T12:51:00.750Z,22.42
2022-10-11T12:51:56.757Z,22.95
2022-10-11T12:52:56.785Z,22.64
2022-10-11T12:54:21.476Z,22.85
2022-10-11T12:54:56.734Z,22.85
2022-10-11T12:55:56.710Z,23.35
2022-10-11T12:56:56.706Z,23.54
2022-10-11T12:57:56.714Z,21.75
2022-10-11T12:58:56.684Z,20.94
2022-10-11T12:59:56.673Z,21.40
2022-10-11T13:00:56.783Z,21.84
2022-10-11T13:01:56.668Z,21.99
2022-10-11T13:02:56.658Z,22.25
2022-10-11T13:03:56.628Z,22.67
2022-10-11T13:04:56.629Z,22.68
2022-10-11T13:06:01.326Z,22.28
2022-10-11T13:06:56.606Z,21.03
2022-10-11T13:07:56.598Z,20.54
2022-10-11T13:08:56.579Z,20.11
2022-10-11T13:09:56.565Z,19.36
2022-10-11T13:10:56.561Z,19.07
2022-10-11T13:11:56.543Z,18.78
2022-10-11T13:12:56.553Z,18.21
2022-10-11T13:13:56.522Z,18.20
2022-10-11T13:14:56.512Z,18.32
2022-10-11T13:15:56.502Z,18.54
2022-10-11T13:16:56.489Z,18.85
2022-10-11T13:17:56.495Z,19.18
2022-10-11T13:18:56.475Z,19.32
2022-10-11T13:19:56.477Z,19.48
2022-10-11T13:20:56.456Z,19.55
2022-10-11T13:21:56.431Z,19.44
2022-10-11T13:22:56.426Z,19.31
2022-10-11T13:23:56.441Z,19.14
2022-10-11T13:24:56.414Z,18.80
2022-10-11T13:25:56.396Z,18.17
2022-10-11T13:26:56.420Z,17.31
2022-10-11T13:27:56.372Z,17.33
2022-10-11T13:28:56.470Z,17.37
2022-10-11T13:29:56.354Z,17.41
2022-10-11T13:30:56.348Z,17.33
2022-10-11T13:31:56.329Z,16.91
2022-10-11T13:32:56.322Z,16.86
2022-10-11T13:33:56.323Z,16.94
2022-10-11T13:35:56.284Z,16.89
2022-10-11T13:36:56.286Z,16.76
2022-10-11T13:37:56.274Z,16.73
2022-10-11T13:38:56.270Z,16.68
2022-10-11T13:39:56.240Z,16.73
2022-10-11T13:40:56.263Z,16.60
2022-10-11T13:41:56.222Z,16.49
2022-10-11T13:42:56.238Z,16.42
2022-10-11T13:43:56.215Z,16.20
2022-10-11T13:44:56.194Z,16.12
2022-10-11T13:45:56.178Z,16.24
2022-10-11T13:46:56.173Z,16.01
2022-10-11T13:47:56.165Z,15.84
2022-10-11T13:48:56.168Z,15.72
2022-10-11T13:49:56.139Z,15.71
2022-10-11T13:50:56.269Z,15.62
2022-10-11T13:51:56.118Z,15.46
2022-10-11T13:52:56.120Z,15.32
2022-10-11T13:53:56.112Z,15.13
2022-10-11T13:54:56.100Z,14.96
2022-10-11T13:55:56.079Z,14.83
2022-10-11T13:56:56.117Z,14.75
2022-10-11T13:57:56.058Z,14.62
2022-10-11T13:58:56.064Z,14.57
2022-10-11T13:59:56.046Z,14.46
2022-10-11T14:00:56.157Z,14.37
2022-10-11T14:01:56.082Z,14.33
2022-10-11T14:02:56.051Z,14.35
2022-10-11T14:03:55.991Z,14.33
2022-10-11T14:04:55.990Z,14.43
2022-10-11T14:05:55.986Z,14.57
2022-10-11T14:06:55.964Z,14.65
2022-10-11T14:07:55.967Z,14.68
2022-10-11T14:08:55.950Z,14.69
2022-10-11T14:09:55.930Z,14.70
2022-10-11T14:10:58.558Z,14.73
2022-10-11T14:11:55.941Z,14.70
2022-10-11T14:12:55.924Z,14.68
2022-10-11T14:13:55.894Z,14.64
2022-10-11T14:14:55.881Z,14.58
2022-10-11T14:15:55.870Z,14.52
2022-10-11T14:16:55.881Z,14.54
2022-10-11T14:17:55.854Z,14.58
2022-10-11T14:18:55.856Z,14.64
2022-10-11T14:20:00.923Z,14.68
2022-10-11T14:20:55.833Z,14.61
2022-10-11T14:21:55.808Z,14.58
2022-10-11T14:22:55.805Z,14.58
2022-10-11T14:23:55.822Z,14.57
2022-10-11T14:24:55.788Z,14.52
2022-10-11T14:25:55.765Z,14.55
2022-10-11T14:26:55.755Z,14.51
2022-10-11T14:27:55.740Z,14.51
2022-10-11T14:28:55.742Z,14.43
2022-10-11T14:30:23.550Z,14.47
2022-10-11T14:30:55.731Z,14.52
2022-10-11T14:31:55.706Z,14.54
2022-10-11T14:32:55.692Z,14.58
2022-10-11T14:33:55.694Z,14.62
2022-10-11T14:34:55.673Z,14.54
2022-10-11T14:35:55.655Z,14.54
2022-10-11T14:36:55.650Z,14.54
2022-10-11T14:37:55.629Z,14.55
2022-10-11T14:38:55.643Z,14.86
2022-10-11T14:39:55.613Z,15.43
2022-10-11T14:40:55.606Z,15.86
2022-10-11T14:41:55.594Z,15.64
2022-10-11T14:42:55.582Z,15.53
2022-10-11T14:43:55.579Z,15.41
2022-10-11T14:44:55.562Z,15.29
2022-10-11T14:45:55.550Z,15.13
2022-10-11T14:46:55.542Z,15.06
2022-10-11T14:47:55.523Z,15.21
2022-10-11T14:48:56.723Z,15.41
2022-10-11T14:49:55.504Z,15.39
2022-10-11T14:50:55.496Z,15.14
2022-10-11T14:51:55.481Z,15.01
2022-10-11T14:52:55.475Z,14.99
2022-10-11T14:53:55.474Z,15.01
2022-10-11T14:54:55.454Z,14.98
2022-10-11T14:55:55.441Z,14.96
2022-10-11T14:56:55.432Z,14.89
2022-10-11T14:57:55.416Z,14.78
2022-10-11T14:58:55.426Z,14.64
2022-10-11T14:59:55.397Z,14.50
2022-10-11T15:00:55.394Z,14.29
2022-10-11T15:01:55.449Z,14.24
2022-10-11T15:02:55.367Z,14.21
2022-10-11T15:03:55.367Z,14.22
2022-10-11T15:04:55.349Z,14.22
2022-10-11T15:05:55.330Z,14.29
2022-10-11T15:06:55.337Z,14.33
2022-10-11T15:07:55.316Z,14.27
2022-10-11T15:08:55.324Z,14.22
2022-10-11T15:09:55.300Z,14.14
2022-10-11T15:10:55.279Z,14.00
2022-10-11T15:11:55.274Z,13.96
2022-10-11T15:12:55.267Z,13.96
2022-10-11T15:13:55.301Z,13.97
2022-10-11T15:14:55.238Z,14.02
2022-10-11T15:15:55.235Z,13.96
2022-10-11T15:16:55.247Z,13.91
2022-10-11T15:17:55.205Z,13.79
2022-10-11T15:18:55.206Z,13.69
2022-10-11T15:19:55.180Z,13.51
2022-10-11T15:20:55.177Z,13.52
2022-10-11T15:21:55.160Z,13.52
2022-10-11T15:22:55.161Z,13.57
2022-10-11T15:23:55.156Z,13.60
2022-10-11T15:24:55.136Z,13.59
2022-10-11T15:25:55.122Z,13.60
2022-10-11T15:26:55.111Z,13.63
2022-10-11T15:27:55.126Z,13.59
2022-10-11T15:28:55.223Z,13.55
2022-10-11T15:29:55.081Z,13.49
2022-10-11T15:30:55.069Z,13.41
2022-10-11T15:31:55.062Z,13.39
2022-10-11T15:32:55.098Z,13.38
2022-10-11T15:33:55.046Z,13.33
2022-10-11T15:34:55.055Z,13.38
2022-10-11T15:35:55.033Z,13.33
2022-10-11T15:36:55.041Z,13.44
2022-10-11T15:37:54.996Z,13.48
2022-10-11T15:38:54.983Z,13.49
2022-10-11T15:39:54.979Z,13.44
2022-10-11T15:40:54.965Z,13.26
2022-10-11T15:41:54.948Z,13.15
2022-10-11T15:42:54.945Z,13.10
2022-10-11T15:43:54.928Z,13.05
2022-10-11T15:44:54.931Z,13.03
2022-10-11T15:45:54.975Z,13.00
2022-10-11T15:46:54.899Z,12.97
2022-10-11T15:47:54.881Z,12.93
2022-10-11T15:48:54.876Z,12.87
2022-10-11T15:49:54.874Z,12.86
2022-10-11T15:50:54.852Z,12.89
2022-10-11T15:51:54.848Z,12.92
2022-10-11T15:52:54.838Z,12.93
2022-10-11T15:53:54.823Z,12.89
2022-10-11T15:54:54.826Z,12.85
2022-10-11T15:55:54.802Z,12.78
2022-10-11T15:56:54.794Z,12.72
2022-10-11T15:57:54.796Z,12.67
2022-10-11T15:58:54.771Z,12.64
2022-10-11T15:59:54.768Z,12.53
2022-10-11T16:00:54.770Z,12.42
2022-10-11T16:01:54.848Z,12.35
2022-10-11T16:02:54.729Z,12.32
2022-10-11T16:03:54.724Z,12.29
2022-10-11T16:04:54.719Z,12.27
2022-10-11T16:05:54.699Z,12.21
2022-10-11T16:06:54.685Z,12.19
2022-10-11T16:07:54.678Z,12.14
2022-10-11T16:08:54.667Z,12.09
2022-10-11T16:09:54.665Z,12.07
2022-10-11T16:10:54.646Z,12.04
2022-10-11T16:11:54.640Z,11.98
2022-10-11T16:12:54.624Z,12.01
2022-10-11T16:13:54.606Z,11.98
2022-10-11T16:14:54.619Z,11.96
2022-10-11T16:15:54.591Z,11.95
2022-10-11T16:16:54.587Z,11.95
2022-10-11T16:17:54.570Z,11.94
2022-10-11T16:18:54.560Z,11.95
2022-10-11T16:19:54.569Z,11.96
2022-10-11T16:20:54.541Z,11.94
2022-10-11T16:21:54.528Z,11.86
2022-10-11T16:22:54.524Z,11.83
2022-10-11T16:23:54.507Z,11.76
2022-10-11T16:24:54.497Z,11.72
2022-10-11T16:25:54.501Z,11.64
2022-10-11T16:26:54.473Z,11.61
2022-10-11T16:27:54.474Z,11.60
2022-10-11T16:28:54.516Z,11.52
2022-10-11T16:29:54.446Z,11.44
2022-10-11T16:30:54.448Z,11.40
2022-10-11T16:31:54.427Z,11.32
2022-10-11T16:32:54.410Z,11.28
2022-10-11T16:33:54.406Z,11.24
2022-10-11T16:34:54.396Z,11.24
2022-10-11T16:35:54.395Z,11.18
2022-10-11T16:36:54.371Z,11.10
2022-10-11T16:37:54.363Z,11.07
2022-10-11T16:38:54.348Z,11.00
2022-10-11T16:39:54.339Z,10.91
2022-10-11T16:40:54.345Z,10.86
2022-10-11T16:41:54.318Z,10.78
2022-10-11T16:42:54.307Z,10.73
2022-10-11T16:43:54.302Z,10.68
2022-10-11T16:44:54.285Z,10.66
2022-10-11T16:45:54.289Z,10.59
2022-10-11T16:46:54.264Z,10.55
2022-10-11T16:47:54.257Z,10.51
2022-10-11T16:48:54.241Z,10.42
2022-10-11T16:49:54.237Z,10.40
2022-10-11T16:50:54.239Z,10.36
2022-10-11T16:51:54.217Z,10.38
2022-10-11T16:52:54.201Z,10.33
2022-10-11T16:53:54.195Z,10.32
2022-10-11T16:54:54.181Z,10.27
2022-10-11T16:55:54.185Z,10.25
2022-10-11T16:56:54.163Z,10.22
2022-10-11T16:57:54.157Z,10.18
2022-10-11T16:58:54.141Z,10.12
2022-10-11T16:59:54.133Z,10.14
2022-10-11T17:00:54.238Z,10.09
2022-10-11T17:01:54.107Z,10.07
2022-10-11T17:02:54.096Z,9.99
2022-10-11T17:03:54.089Z,9.96
2022-10-11T17:04:54.072Z,9.91
2022-10-11T17:05:54.082Z,9.86
2022-10-11T17:06:54.076Z,9.81
2022-10-11T17:07:54.077Z,9.72
2022-10-11T17:08:54.054Z,9.65
2022-10-11T17:09:54.025Z,9.58
2022-10-11T17:10:54.016Z,9.58
2022-10-11T17:11:54.000Z,9.53
2022-10-11T17:12:53.984Z,9.50
2022-10-11T17:13:53.981Z,9.47
2022-10-11T17:14:53.962Z,9.48
2022-10-11T17:15:53.970Z,9.46
2022-10-11T17:16:53.958Z,9.40
2022-10-11T17:17:53.965Z,9.39
2022-10-11T17:18:54.044Z,9.33
2022-10-11T17:19:53.991Z,9.33
2022-10-11T17:20:53.929Z,9.28
2022-10-11T17:21:53.998Z,9.26
2022-10-11T17:22:53.875Z,9.21
2022-10-11T17:23:53.870Z,9.20
2022-10-11T17:24:53.854Z,9.17
2022-10-11T17:25:53.847Z,9.14
2022-10-11T17:26:53.840Z,9.05
2022-10-11T17:27:53.824Z,9.05
2022-10-11T17:28:53.854Z,8.99
2022-10-11T17:29:53.841Z,8.98
2022-10-11T17:30:53.792Z,8.92
2022-10-11T17:31:53.797Z,8.84
2022-10-11T17:32:53.773Z,8.83
2022-10-11T17:33:53.765Z,8.81
2022-10-11T17:34:53.775Z,8.79
2022-10-11T17:35:53.744Z,8.71
2022-10-11T17:36:53.742Z,8.70
2022-10-11T17:37:53.723Z,8.65
2022-10-11T17:38:53.713Z,8.61
2022-10-11T17:39:53.699Z,8.59
2022-10-11T17:40:53.720Z,8.58
2022-10-11T17:41:53.698Z,8.52
2022-10-11T17:42:53.664Z,8.48
2022-10-11T17:43:53.658Z,8.41
2022-10-11T17:44:53.644Z,8.40
2022-10-11T17:45:53.640Z,8.37
2022-10-11T17:46:53.640Z,8.34
2022-10-11T17:47:53.620Z,8.28
2022-10-11T17:48:53.605Z,8.25